CheckWX is a tool to help pilots better visualize weather data.  It is not intended as a substitute for an official pre-flight weather briefing.

21:57:19 UTC

KOLY METAR
Olney-Noble Airport
Olney-Noble, Illinois, USA
Current

20 mins ago

KOLY 232137Z AUTO 25007KT 10SM SCT060 28/22 A3008 RMK AO2
Observed
May-23 @ 21:37 UTC
Wind
  • 250° at 7 KTS
Visibility
10 SM
Flight Rules
VFR
Cloud Levels
  • Scattered at 6,000' AGL
Temperature
28°C / 82°F
Dewpoint
22°C / 72°F
Heat Index
30°C / 86°F
Humidity
70%
Altimeter
30.08" Hg
Pressure
1018.62 hPa
Previous

41 mins ago

KOLY 232116Z AUTO 24005KT 10SM SCT031 SCT080 29/23 A3007 RMK AO2
Observed
May-23 @ 21:16 UTC
Wind
  • 240° at 5 KTS
Visibility
10 SM
Flight Rules
VFR
Cloud Levels
  • Scattered at 3,100' AGL
  • Scattered at 8,000' AGL
Temperature
29°C / 84°F
Dewpoint
23°C / 73°F
Heat Index
32°C / 90°F
Humidity
70%
Altimeter
30.07" Hg
Pressure
1018.32 hPa
Previous

58 mins ago

KOLY 232059Z AUTO 24005KT 10SM SCT031 SCT080 28/24 A3008 RMK AO2
Observed
May-23 @ 20:59 UTC
Wind
  • 240° at 5 KTS
Visibility
10 SM
Flight Rules
VFR
Cloud Levels
  • Scattered at 3,100' AGL
  • Scattered at 8,000' AGL
Temperature
28°C / 82°F
Dewpoint
24°C / 75°F
Heat Index
32°C / 89°F
Humidity
79%
Altimeter
30.08" Hg
Pressure
1018.62 hPa